Time;durP1;ratioP1;P1;durP2;ratioP2;P2;SDS_P1;SDS_P2;PMS_P1;PMS_P2;Temp;Humidity;BMP_temperature;BMP_pressure;BME280_temperature;BME280_humidity;BME280_pressure;Samples;Min_cycle;Max_cycle;Signal;HPM_P1;HPM_P2
2021/10/12 01:47:36;;;;;;;5.30;4.30;;;10.00;98.30;;;;;;4380977;23;20550;-84
2021/10/12 01:50:03;;;;;;;6.53;4.33;;;10.00;98.30;;;;;;4054455;29;20481;-84
2021/10/12 02:05:08;;;;;;;5.93;4.00;;;10.10;98.30;;;;;;4004393;29;21002;-85
2021/10/12 02:10:54;;;;;;;5.50;3.20;;;10.10;98.30;;;;;;4043476;29;20476;-84
2021/10/12 02:19:38;;;;;;;5.83;3.87;;;9.90;98.30;;;;;;4054277;29;20557;-86
2021/10/12 02:41:30;;;;;;;5.80;4.43;;;9.60;98.30;;;;;;4005294;29;20572;-85
2021/10/12 02:50:09;;;;;;;6.43;4.07;;;9.60;98.30;;;;;;4052146;29;20526;-84
2021/10/12 02:58:44;;;;;;;10.10;4.40;;;9.50;98.30;;;;;;4053439;29;20448;-85
2021/10/12 03:00:54;;;;;;;7.50;4.77;;;9.50;98.30;;;;;;4046225;29;20460;-85
2021/10/12 03:06:29;;;;;;;5.80;4.53;;;9.50;98.30;;;;;;4052642;29;20471;-85
2021/10/12 03:11:26;;;;;;;5.80;4.30;;;9.50;98.30;;;;;;4014225;29;20488;-85
2021/10/12 03:13:31;;;;;;;7.37;4.17;;;9.50;98.30;;;;;;4043961;29;20504;-86
2021/10/12 03:16:10;;;;;;;5.80;4.00;;;9.50;98.30;;;;;;4052941;29;20495;-86
2021/10/12 03:38:11;;;;;;;6.20;4.17;;;9.30;98.30;;;;;;3948642;30;20503;-86
2021/10/12 03:49:16;;;;;;;3.50;3.20;;;9.30;98.30;;;;;;4051406;29;20967;-86
2021/10/12 03:51:30;;;;;;;7.17;3.20;;;9.30;98.30;;;;;;4030020;29;20495;-86
2021/10/12 03:53:41;;;;;;;3.00;2.70;;;9.30;98.30;;;;;;4048913;29;20591;-86
2021/10/12 03:55:54;;;;;;;4.03;3.17;;;9.30;98.30;;;;;;4052464;29;20510;-86
2021/10/12 03:58:02;;;;;;;8.37;2.77;;;9.30;98.30;;;;;;4051437;29;20472;-86
2021/10/12 04:02:41;;;;;;;5.83;3.40;;;9.30;98.30;;;;;;4039566;29;20487;-86
2021/10/12 04:04:44;;;;;;;4.73;2.60;;;9.30;98.30;;;;;;4052379;29;20472;-85
2021/10/12 04:06:47;;;;;;;4.03;2.67;;;9.30;98.30;;;;;;4053327;29;20468;-85
2021/10/12 04:08:50;;;;;;;4.03;2.80;;;9.30;98.30;;;;;;4053813;29;20562;-86
2021/10/12 04:10:54;;;;;;;6.00;2.70;;;9.30;98.30;;;;;;4063162;29;20468;-86
2021/10/12 04:12:57;;;;;;;3.43;2.10;;;9.30;98.30;;;;;;4052812;29;20501;-86
2021/10/12 04:15:00;;;;;;;3.00;2.70;;;9.30;98.30;;;;;;4038047;29;20498;-86
2021/10/12 04:17:04;;;;;;;3.23;2.80;;;9.30;98.30;;;;;;4051744;29;20464;-86
2021/10/12 04:19:07;;;;;;;5.03;2.50;;;9.20;98.30;;;;;;4053102;29;20530;-86
2021/10/12 04:21:10;;;;;;;5.20;2.60;;;9.20;98.30;;;;;;4052074;29;20547;-85
2021/10/12 04:23:14;;;;;;;4.53;2.70;;;9.20;98.30;;;;;;4051241;29;20492;-85
2021/10/12 04:25:17;;;;;;;3.50;2.40;;;9.20;98.30;;;;;;4036635;29;20484;-86
2021/10/12 04:27:19;;;;;;;7.60;2.80;;;9.20;98.30;;;;;;4040311;29;20451;-84
2021/10/12 04:29:22;;;;;;;4.80;2.50;;;9.20;98.30;;;;;;4051609;29;20472;-85
2021/10/12 04:31:25;;;;;;;5.47;3.00;;;9.20;98.30;;;;;;4051549;29;20578;-85
2021/10/12 04:33:30;;;;;;;6.43;4.70;;;9.20;98.30;;;;;;4051449;29;20459;-84
2021/10/12 04:35:33;;;;;;;6.67;3.30;;;9.20;98.30;;;;;;4051985;29;20525;-84
2021/10/12 04:37:36;;;;;;;6.57;2.90;;;9.30;98.30;;;;;;4051754;29;20472;-84
2021/10/12 04:39:39;;;;;;;3.67;2.73;;;9.30;98.30;;;;;;4051933;29;20443;-83
2021/10/12 04:41:42;;;;;;;3.97;2.80;;;9.30;98.30;;;;;;4050967;29;20562;-86
2021/10/12 04:43:45;;;;;;;6.67;3.03;;;9.30;98.30;;;;;;4051785;29;20498;-84
2021/10/12 04:45:48;;;;;;;3.13;2.83;;;9.30;98.30;;;;;;4051201;29;20483;-85
2021/10/12 04:47:51;;;;;;;3.50;3.00;;;9.30;98.30;;;;;;4051163;29;20472;-87
2021/10/12 04:49:55;;;;;;;3.33;2.53;;;9.30;98.30;;;;;;4051444;29;20478;-84
2021/10/12 04:51:58;;;;;;;3.07;2.77;;;9.30;98.30;;;;;;4051115;29;20486;-84
2021/10/12 04:54:02;;;;;;;3.90;2.97;;;9.30;98.30;;;;;;4051094;29;20478;-85
2021/10/12 04:56:06;;;;;;;5.00;3.20;;;9.30;98.30;;;;;;4051604;29;20486;-85
2021/10/12 04:58:09;;;;;;;5.03;3.60;;;9.30;98.30;;;;;;4051297;29;20472;-84
2021/10/12 05:00:14;;;;;;;4.73;3.67;;;9.30;98.30;;;;;;4051219;29;20468;-84
2021/10/12 05:02:17;;;;;;;4.97;3.07;;;9.30;98.30;;;;;;4038044;29;20487;-85
2021/10/12 05:04:20;;;;;;;5.60;3.03;;;9.40;98.30;;;;;;4051805;29;20484;-85
2021/10/12 05:06:25;;;;;;;5.20;3.50;;;9.30;98.30;;;;;;4052884;29;20566;-86
2021/10/12 05:08:28;;;;;;;5.53;3.37;;;9.30;98.30;;;;;;4056459;29;20464;-86
2021/10/12 05:10:31;;;;;;;4.30;3.70;;;9.30;98.30;;;;;;4061592;29;20560;-87
2021/10/12 05:12:34;;;;;;;4.60;3.53;;;9.40;98.30;;;;;;4060956;29;20474;-86
2021/10/12 05:14:37;;;;;;;6.50;4.70;;;9.50;98.30;;;;;;4070893;29;20713;-86
2021/10/12 05:16:41;;;;;;;4.40;3.50;;;9.60;98.30;;;;;;4061639;29;20563;-86
2021/10/12 05:18:46;;;;;;;5.60;3.63;;;9.80;98.30;;;;;;4060773;29;20482;-86
2021/10/12 05:20:49;;;;;;;8.77;4.47;;;9.80;98.30;;;;;;4038545;29;20556;-86
2021/10/12 05:22:53;;;;;;;4.57;3.97;;;9.80;98.30;;;;;;4060219;29;20492;-86
2021/10/12 05:24:57;;;;;;;7.30;4.53;;;9.70;98.30;;;;;;4061002;29;20499;-86
2021/10/12 05:27:00;;;;;;;7.27;4.43;;;9.50;98.30;;;;;;4061148;29;20468;-86
2021/10/12 05:29:03;;;;;;;6.43;4.00;;;9.40;98.30;;;;;;4061395;29;20556;-87
2021/10/12 05:31:07;;;;;;;5.17;3.90;;;9.50;98.30;;;;;;4060521;29;20570;-86
2021/10/12 05:33:15;;;;;;;7.37;5.23;;;9.60;98.30;;;;;;4060728;29;20680;-86
2021/10/12 05:35:18;;;;;;;6.83;5.83;;;9.60;98.30;;;;;;4061079;29;20550;-87
2021/10/12 05:37:21;;;;;;;7.73;5.07;;;9.50;98.30;;;;;;4064293;29;20483;-86
2021/10/12 05:39:28;;;;;;;6.63;4.93;;;9.40;98.30;;;;;;4058381;29;20842;-86
2021/10/12 05:41:31;;;;;;;5.80;5.20;;;9.30;98.30;;;;;;4052332;29;20446;-86
2021/10/12 05:43:35;;;;;;;7.17;5.33;;;9.30;98.30;;;;;;4038920;29;20464;-86
2021/10/12 05:45:38;;;;;;;6.67;5.97;;;9.20;98.30;;;;;;4052143;29;20476;-86
2021/10/12 05:47:41;;;;;;;7.50;5.70;;;9.20;98.30;;;;;;4053002;29;20818;-86
2021/10/12 05:49:44;;;;;;;8.00;5.67;;;9.10;98.30;;;;;;4052897;29;20503;-87
2021/10/12 05:51:48;;;;;;;9.70;7.43;;;9.20;98.30;;;;;;4045483;29;20503;-87
2021/10/12 05:53:53;;;;;;;7.83;6.40;;;9.20;98.30;;;;;;4060367;29;20856;-87
2021/10/12 05:56:03;;;;;;;23.37;13.43;;;9.20;98.30;;;;;;4060703;29;20807;-86
2021/10/12 05:58:08;;;;;;;9.13;7.13;;;9.30;98.30;;;;;;4045037;29;20480;-87
2021/10/12 06:00:12;;;;;;;11.93;8.43;;;9.30;98.30;;;;;;4049344;29;20476;-86
2021/10/12 06:02:15;;;;;;;10.67;8.50;;;9.50;98.30;;;;;;4048584;29;20478;-87
2021/10/12 06:04:18;;;;;;;15.20;10.17;;;9.60;98.30;;;;;;4052782;29;20503;-86
2021/10/12 06:06:21;;;;;;;16.73;13.00;;;9.60;98.30;;;;;;4048868;29;20563;-87
2021/10/12 06:08:24;;;;;;;20.23;14.60;;;9.60;98.30;;;;;;4052919;29;20480;-86
2021/10/12 06:10:27;;;;;;;11.77;7.97;;;9.70;98.30;;;;;;4053388;29;20476;-86
2021/10/12 06:12:32;;;;;;;8.47;7.00;;;9.70;98.30;;;;;;4053431;29;20583;-86
2021/10/12 06:14:36;;;;;;;9.20;7.10;;;9.70;98.30;;;;;;4054082;29;20472;-86
2021/10/12 06:16:40;;;;;;;11.20;6.60;;;9.60;98.30;;;;;;4056657;29;20567;-87
2021/10/12 06:18:43;;;;;;;10.80;8.20;;;9.50;98.30;;;;;;4053605;29;20479;-87
2021/10/12 06:20:46;;;;;;;12.30;9.13;;;9.50;98.30;;;;;;4057928;29;20812;-88
2021/10/12 06:22:49;;;;;;;11.80;9.17;;;9.60;98.30;;;;;;4053682;29;20472;-86
2021/10/12 06:24:52;;;;;;;15.13;9.57;;;9.70;98.30;;;;;;4052853;29;20532;-87
2021/10/12 06:26:56;;;;;;;12.10;8.70;;;9.80;98.30;;;;;;4052833;29;20476;-88
2021/10/12 06:29:00;;;;;;;9.40;6.47;;;9.90;98.30;;;;;;4053166;29;20572;-86
2021/10/12 06:31:03;;;;;;;9.77;7.43;;;10.00;98.30;;;;;;4052993;29;20483;-86
2021/10/12 06:33:07;;;;;;;8.80;6.60;;;10.10;98.30;;;;;;4052604;29;20527;-86
2021/10/12 06:35:10;;;;;;;25.03;16.60;;;10.20;98.30;;;;;;4053692;29;20567;-87
2021/10/12 06:37:13;;;;;;;19.27;11.47;;;10.40;98.30;;;;;;4055741;29;20487;-86
2021/10/12 06:39:16;;;;;;;31.00;18.53;;;10.50;98.30;;;;;;4055518;29;20478;-87
2021/10/12 06:41:20;;;;;;;21.40;11.40;;;10.70;98.30;;;;;;4055666;29;20567;-86
2021/10/12 06:43:43;;;;;;;19.10;10.00;;;10.80;98.30;;;;;;4055851;29;20491;-87
2021/10/12 06:45:48;;;;;;;17.83;9.47;;;10.90;98.30;;;;;;4055360;29;20488;-86
2021/10/12 06:47:51;;;;;;;15.90;10.27;;;10.90;98.30;;;;;;4055611;29;20506;-87
2021/10/12 06:49:55;;;;;;;18.13;8.90;;;11.00;98.30;;;;;;4055646;29;20892;-87
2021/10/12 06:51:58;;;;;;;12.37;6.30;;;11.00;98.30;;;;;;4054496;29;20476;-87
2021/10/12 06:54:01;;;;;;;19.90;12.00;;;11.10;98.30;;;;;;4057052;29;20476;-87
2021/10/12 06:56:05;;;;;;;22.23;12.33;;;11.10;98.30;;;;;;4060981;29;21056;-87
2021/10/12 06:58:09;;;;;;;15.17;9.17;;;11.10;98.30;;;;;;4055242;29;20527;-86
2021/10/12 07:00:14;;;;;;;8.57;4.87;;;11.10;98.30;;;;;;4055975;29;20486;-87
2021/10/12 07:02:19;;;;;;;6.47;4.60;;;11.00;98.30;;;;;;4054793;29;20920;-86
2021/10/12 07:04:23;;;;;;;8.33;4.20;;;11.10;98.30;;;;;;4062730;29;20496;-86
2021/10/12 07:06:26;;;;;;;6.77;3.90;;;11.10;98.30;;;;;;4047328;29;20476;-87
2021/10/12 07:08:29;;;;;;;5.93;4.50;;;11.10;98.30;;;;;;4055029;29;20487;-86
2021/10/12 07:10:32;;;;;;;17.03;10.47;;;11.10;98.30;;;;;;4055185;29;20504;-86
2021/10/12 07:12:36;;;;;;;29.73;17.13;;;11.30;98.30;;;;;;4054662;29;20496;-86
2021/10/12 07:14:39;;;;;;;22.00;12.27;;;11.60;98.30;;;;;;4054628;29;20560;-86
2021/10/12 07:16:42;;;;;;;19.30;8.80;;;11.70;98.30;;;;;;4054960;29;20476;-87
2021/10/12 07:18:47;;;;;;;15.60;6.00;;;11.80;98.30;;;;;;4061985;29;20472;-87
2021/10/12 07:20:50;;;;;;;6.13;4.07;;;11.90;98.30;;;;;;4047806;29;20567;-86
2021/10/12 07:22:53;;;;;;;10.23;3.93;;;11.90;98.30;;;;;;4054701;29;20925;-86
2021/10/12 07:24:57;;;;;;;9.80;5.20;;;12.00;98.30;;;;;;4054882;29;20532;-87
2021/10/12 07:27:00;;;;;;;7.07;4.90;;;12.00;98.30;;;;;;4052973;29;20472;-87
2021/10/12 07:29:18;;;;;;;8.63;4.40;;;12.10;98.30;;;;;;4051497;29;20510;-87
2021/10/12 07:31:21;;;;;;;7.37;4.63;;;12.10;98.30;;;;;;4054494;29;20492;-87
2021/10/12 07:33:25;;;;;;;10.57;5.20;;;12.20;98.30;;;;;;4054177;29;20582;-87
2021/10/12 07:35:32;;;;;;;17.57;8.70;;;12.40;98.30;;;;;;4054291;29;20472;-86
2021/10/12 07:37:37;;;;;;;19.53;12.63;;;12.60;98.30;;;;;;4054544;29;20570;-87
2021/10/12 07:39:42;;;;;;;27.40;14.33;;;12.80;98.30;;;;;;4054711;29;20551;-87
2021/10/12 07:41:45;;;;;;;61.53;37.23;;;12.80;98.30;;;;;;4054607;29;20570;-87
2021/10/12 13:50:52;;;;;;;2.80;1.77;;;16.80;92.90;;;;;;559598;23;20850;-82
2021/10/12 13:52:55;;;;;;;6.20;2.40;;;17.00;94.70;;;;;;4090745;29;20582;-84
2021/10/12 13:54:58;;;;;;;2.93;2.10;;;18.00;95.00;;;;;;4068417;29;21030;-83
2021/10/12 13:57:03;;;;;;;3.17;2.17;;;19.30;91.60;;;;;;4070612;29;20459;-83
2021/10/12 13:59:06;;;;;;;6.27;2.80;;;20.50;87.90;;;;;;4067221;29;20474;-83
2021/10/12 14:01:09;;;;;;;2.73;1.80;;;21.30;86.40;;;;;;4071732;29;20483;-82
2021/10/12 14:03:19;;;;;;;3.13;2.27;;;22.20;84.30;;;;;;4066151;29;20570;-82
2021/10/12 14:05:24;;;;;;;3.10;2.00;;;22.90;82.70;;;;;;4065068;29;20476;-81
2021/10/12 14:07:28;;;;;;;3.70;2.37;;;23.50;81.40;;;;;;4068538;29;20483;-82
2021/10/12 14:09:31;;;;;;;3.67;2.97;;;23.80;80.70;;;;;;4076480;29;21072;-81
2021/10/12 14:11:34;;;;;;;4.33;2.10;;;24.20;79.40;;;;;;4070185;29;20885;-81
2021/10/12 14:13:37;;;;;;;3.07;2.17;;;24.50;78.50;;;;;;4070779;29;20554;-83
2021/10/12 14:15:42;;;;;;;2.23;1.97;;;24.40;78.40;;;;;;4068144;29;20955;-82
2021/10/12 14:17:45;;;;;;;4.73;2.30;;;24.70;78.20;;;;;;4066926;29;20475;-80
2021/10/12 14:19:48;;;;;;;4.83;2.10;;;24.80;78.40;;;;;;4060463;29;20512;-82
2021/10/12 14:21:51;;;;;;;3.70;2.37;;;25.10;78.30;;;;;;4075174;29;20474;-82
2021/10/12 14:23:55;;;;;;;4.43;2.40;;;25.40;76.40;;;;;;4075105;29;20502;-82
2021/10/12 14:25:58;;;;;;;5.40;3.00;;;25.30;76.50;;;;;;4072791;29;20553;-82
2021/10/12 14:28:01;;;;;;;3.10;2.80;;;25.30;76.80;;;;;;4073587;29;20493;-82
2021/10/12 14:30:04;;;;;;;3.33;3.03;;;25.30;77.00;;;;;;4075083;29;20481;-83
2021/10/12 14:32:09;;;;;;;2.40;2.00;;;25.20;76.00;;;;;;4065388;29;20486;-82
2021/10/12 14:34:12;;;;;;;2.40;1.70;;;24.40;74.40;;;;;;4074269;29;20942;-81
2021/10/12 14:36:15;;;;;;;3.40;2.23;;;23.00;75.20;;;;;;4075349;29;20459;-82
2021/10/12 14:38:18;;;;;;;2.23;1.90;;;21.60;76.60;;;;;;4064415;29;20472;-82
2021/10/12 14:40:22;;;;;;;3.67;1.97;;;20.30;79.00;;;;;;4071458;29;20502;-82
2021/10/12 14:42:26;;;;;;;2.23;1.50;;;19.40;81.40;;;;;;4076600;29;20467;-81
2021/10/12 14:44:32;;;;;;;2.43;2.00;;;18.80;83.20;;;;;;4074528;29;20495;-82
2021/10/12 14:46:35;;;;;;;6.10;2.50;;;18.30;85.30;;;;;;4070188;29;20498;-83
2021/10/12 14:48:37;;;;;;;18.17;13.30;;;18.10;86.90;;;;;;4070710;29;20486;-82
2021/10/12 14:50:42;;;;;;;25.90;18.13;;;17.70;89.80;;;;;;4062290;29;20527;-83
2021/10/12 14:53:01;;;;;;;33.97;22.17;;;17.40;91.30;;;;;;4062825;29;20542;-83
2021/10/12 14:55:05;;;;;;;15.40;10.00;;;17.20;92.90;;;;;;4068978;29;20467;-83
2021/10/12 14:57:10;;;;;;;10.97;7.30;;;17.00;93.80;;;;;;4076210;29;20458;-80
2021/10/12 14:59:13;;;;;;;37.80;24.10;;;16.90;94.70;;;;;;4075657;29;20526;-80
2021/10/12 15:01:16;;;;;;;36.10;25.57;;;16.70;96.00;;;;;;4074857;29;20479;-80
2021/10/12 15:03:20;;;;;;;37.83;22.97;;;16.50;95.50;;;;;;4068092;29;20990;-80
2021/10/12 15:05:23;;;;;;;16.63;9.20;;;16.40;95.90;;;;;;4067597;29;20471;-80
2021/10/12 15:07:26;;;;;;;7.13;3.50;;;16.00;97.10;;;;;;4075517;29;20527;-80
2021/10/12 15:09:29;;;;;;;5.40;3.33;;;15.70;98.30;;;;;;4075000;29;20906;-80
2021/10/12 15:11:33;;;;;;;4.70;3.57;;;15.20;98.30;;;;;;4066783;29;20482;-80
2021/10/12 15:13:37;;;;;;;5.60;3.60;;;15.10;98.30;;;;;;4075868;29;20495;-80
2021/10/12 15:15:40;;;;;;;6.50;4.37;;;15.00;98.30;;;;;;4068061;29;21038;-80
2021/10/12 15:17:43;;;;;;;7.17;4.63;;;15.10;98.30;;;;;;4067725;29;20477;-81
2021/10/12 15:19:46;;;;;;;6.70;4.23;;;15.10;98.30;;;;;;4075516;29;20918;-80
2021/10/12 15:21:48;;;;;;;5.07;4.07;;;15.20;98.30;;;;;;4067278;29;20534;-80
2021/10/12 15:23:51;;;;;;;5.23;4.30;;;15.30;98.30;;;;;;4068243;29;20525;-80
2021/10/12 15:25:54;;;;;;;7.90;4.70;;;15.20;98.30;;;;;;4060594;29;20559;-80
2021/10/12 15:27:57;;;;;;;6.40;5.50;;;15.20;98.30;;;;;;4059121;29;20500;-80
2021/10/12 15:30:01;;;;;;;6.87;3.70;;;15.20;98.30;;;;;;4069235;29;20955;-80
2021/10/12 15:32:07;;;;;;;3.50;3.20;;;15.10;98.30;;;;;;4076046;29;20542;-80
2021/10/12 15:34:10;;;;;;;5.80;4.50;;;15.10;98.30;;;;;;4076561;29;20491;-80
2021/10/12 15:36:13;;;;;;;4.20;3.60;;;15.00;98.30;;;;;;4068889;29;20865;-80
2021/10/12 15:38:15;;;;;;;4.33;3.33;;;15.00;98.30;;;;;;4076696;29;20475;-80
2021/10/12 15:40:19;;;;;;;3.77;3.37;;;15.10;98.30;;;;;;4067987;29;20476;-80
2021/10/12 15:42:22;;;;;;;4.43;3.00;;;14.90;98.30;;;;;;4075665;29;20472;-80
2021/10/12 15:44:26;;;;;;;7.57;4.00;;;14.90;98.30;;;;;;4076326;29;20491;-80
2021/10/12 15:46:30;;;;;;;6.77;4.50;;;14.80;98.30;;;;;;4068891;29;20538;-80
2021/10/12 15:48:33;;;;;;;6.10;3.63;;;14.80;98.30;;;;;;4076299;29;20478;-81
2021/10/12 15:50:39;;;;;;;6.80;4.60;;;14.70;98.30;;;;;;4069166;29;20471;-80
2021/10/12 15:52:47;;;;;;;5.27;4.40;;;14.30;98.30;;;;;;4076519;29;20483;-80
2021/10/12 15:54:50;;;;;;;6.83;5.50;;;14.20;98.30;;;;;;4068764;29;20476;-80
2021/10/12 15:56:56;;;;;;;6.00;5.20;;;14.10;98.30;;;;;;4069449;29;20474;-80
2021/10/12 15:59:03;;;;;;;9.93;7.10;;;14.10;98.30;;;;;;4069588;29;20470;-80
2021/10/12 16:01:06;;;;;;;26.93;18.30;;;14.10;98.30;;;;;;4072359;29;20479;-80
2021/10/12 16:03:12;;;;;;;24.70;17.00;;;14.20;98.30;;;;;;4069435;29;20510;-81
2021/10/12 16:05:15;;;;;;;45.70;27.03;;;14.30;98.30;;;;;;4067512;29;20467;-81
2021/10/12 16:07:23;;;;;;;21.60;13.83;;;14.40;98.30;;;;;;4075274;29;20846;-81
2021/10/12 16:09:27;;;;;;;8.93;7.33;;;14.30;98.30;;;;;;4075558;29;20989;-81
2021/10/12 16:11:47;;;;;;;7.67;5.17;;;14.30;98.30;;;;;;4073987;29;20475;-81
2021/10/12 16:13:53;;;;;;;11.60;7.07;;;14.10;98.30;;;;;;4075428;29;20487;-81
2021/10/12 16:21:25;;;;;;;7.70;5.80;;;13.80;98.30;;;;;;4060513;29;20543;-82
2021/10/12 16:23:29;;;;;;;7.80;6.13;;;13.60;98.30;;;;;;4069075;29;20546;-82
2021/10/12 16:25:32;;;;;;;9.37;5.80;;;13.50;98.30;;;;;;4069460;29;20463;-82
2021/10/12 16:27:36;;;;;;;8.80;7.43;;;13.50;98.30;;;;;;4068907;29;20498;-82
2021/10/12 16:29:38;;;;;;;10.63;6.10;;;13.50;98.30;;;;;;4068558;29;20487;-82
2021/10/12 16:31:46;;;;;;;10.33;6.10;;;13.40;98.30;;;;;;4068929;29;20818;-82
2021/10/12 16:33:51;;;;;;;8.03;6.53;;;13.40;98.30;;;;;;4061085;29;21008;-82
2021/10/12 16:35:57;;;;;;;8.43;5.50;;;13.40;98.30;;;;;;4068493;29;20470;-82
2021/10/12 16:38:04;;;;;;;9.17;5.80;;;13.30;98.30;;;;;;4068710;29;21026;-83
2021/10/12 16:40:09;;;;;;;8.47;6.80;;;13.30;98.30;;;;;;4068318;29;20876;-83
2021/10/12 16:42:15;;;;;;;10.80;6.67;;;13.20;98.30;;;;;;4068116;29;20486;-82
2021/10/12 16:44:21;;;;;;;6.47;4.80;;;13.20;98.30;;;;;;4068624;29;20499;-82
2021/10/12 16:46:24;;;;;;;8.20;5.63;;;13.10;98.30;;;;;;4068361;29;20467;-82
2021/10/12 16:48:27;;;;;;;7.70;5.77;;;13.10;98.30;;;;;;4068419;29;20495;-82
2021/10/12 16:50:31;;;;;;;9.23;6.37;;;13.10;98.30;;;;;;4062159;29;20468;-82
2021/10/12 16:52:37;;;;;;;11.63;8.37;;;13.00;98.30;;;;;;4066473;29;20549;-82
2021/10/12 16:54:40;;;;;;;9.43;8.43;;;13.00;98.30;;;;;;4068558;29;20473;-82
2021/10/12 16:56:47;;;;;;;9.10;7.67;;;12.90;98.30;;;;;;4068150;29;20507;-82
2021/10/12 17:01:06;;;;;;;10.10;8.90;;;12.60;98.30;;;;;;4067203;29;20475;-82
2021/10/12 17:03:09;;;;;;;15.90;12.03;;;12.60;98.30;;;;;;4068085;29;20498;-82
2021/10/12 17:05:13;;;;;;;12.00;9.70;;;12.70;98.30;;;;;;4068313;29;20483;-81
2021/10/12 17:07:18;;;;;;;12.50;8.03;;;12.80;98.30;;;;;;4064468;29;20477;-82
2021/10/12 17:09:24;;;;;;;11.33;9.00;;;12.80;98.30;;;;;;4068331;29;20474;-82
2021/10/12 17:11:27;;;;;;;10.73;8.20;;;12.60;98.30;;;;;;4054895;29;20536;-82
2021/10/12 17:13:30;;;;;;;10.73;8.93;;;12.50;98.30;;;;;;4066227;29;20498;-82
2021/10/12 17:15:33;;;;;;;8.80;7.70;;;12.50;98.30;;;;;;4069486;29;20993;-82
2021/10/12 17:17:36;;;;;;;8.07;7.27;;;12.50;98.30;;;;;;4074695;29;20479;-82
2021/10/12 17:19:42;;;;;;;11.00;7.90;;;12.40;98.30;;;;;;4073366;29;20470;-82
2021/10/12 17:21:45;;;;;;;8.33;7.53;;;12.40;98.30;;;;;;4066309;29;20471;-82
2021/10/12 17:23:54;;;;;;;10.60;7.13;;;12.40;98.30;;;;;;4072617;29;20486;-81
2021/10/12 17:25:59;;;;;;;10.90;8.40;;;12.40;98.30;;;;;;4068192;29;20498;-81
2021/10/12 17:28:06;;;;;;;10.17;8.17;;;12.40;98.30;;;;;;4072837;29;20928;-82
2021/10/12 17:30:11;;;;;;;9.73;7.67;;;12.30;98.30;;;;;;4072923;29;20474;-81
2021/10/12 17:32:14;;;;;;;10.03;7.97;;;12.30;98.30;;;;;;4068700;29;20471;-82
2021/10/12 17:34:21;;;;;;;16.70;11.37;;;12.20;98.30;;;;;;4059994;29;20490;-82
2021/10/12 17:36:24;;;;;;;31.80;19.83;;;12.30;98.30;;;;;;4068309;29;20479;-82
2021/10/12 17:38:27;;;;;;;32.37;22.67;;;12.40;98.30;;;;;;4060665;29;20870;-82
2021/10/12 17:40:37;;;;;;;24.10;16.10;;;12.60;98.30;;;;;;4068363;29;20475;-82
2021/10/12 17:42:40;;;;;;;20.93;15.13;;;12.50;98.30;;;;;;4067973;29;20474;-82
2021/10/12 17:44:47;;;;;;;16.53;11.40;;;12.40;98.30;;;;;;4060465;29;20467;-82
2021/10/12 17:46:51;;;;;;;18.80;12.00;;;12.30;98.30;;;;;;4068802;29;20554;-82
2021/10/12 17:48:55;;;;;;;17.73;11.67;;;12.30;98.30;;;;;;4068667;29;20495;-82
2021/10/12 17:50:59;;;;;;;15.30;11.30;;;12.20;98.30;;;;;;4067998;29;20582;-82
2021/10/12 17:53:04;;;;;;;19.90;11.80;;;12.10;98.30;;;;;;4068277;29;20495;-81
2021/10/12 17:55:11;;;;;;;19.33;12.07;;;12.10;98.30;;;;;;4060434;29;20476;-82
2021/10/12 17:57:17;;;;;;;15.43;11.10;;;12.10;98.30;;;;;;4068176;29;20479;-82
2021/10/12 17:59:21;;;;;;;15.70;11.70;;;12.00;98.30;;;;;;4067864;29;20517;-82
2021/10/12 18:01:24;;;;;;;15.43;10.83;;;12.00;98.30;;;;;;4067905;29;20539;-82
2021/10/12 18:03:31;;;;;;;14.43;10.40;;;11.90;98.30;;;;;;4067963;29;20868;-82
2021/10/12 18:05:38;;;;;;;14.43;11.17;;;11.90;98.30;;;;;;4068727;29;20475;-82
2021/10/12 18:07:43;;;;;;;14.27;12.40;;;11.90;98.30;;;;;;4068252;29;20482;-82
2021/10/12 18:09:47;;;;;;;14.50;12.97;;;11.90;98.30;;;;;;4052245;29;20498;-82
2021/10/12 18:11:50;;;;;;;17.30;13.60;;;11.80;98.30;;;;;;4067565;29;20518;-82
2021/10/12 18:13:56;;;;;;;28.03;21.70;;;11.80;98.30;;;;;;4067917;29;20990;-82
2021/10/12 18:15:59;;;;;;;37.10;26.77;;;11.80;98.30;;;;;;4067872;29;20478;-81
2021/10/12 18:18:02;;;;;;;19.33;16.93;;;11.70;98.30;;;;;;4067669;29;20483;-83
2021/10/12 18:20:10;;;;;;;17.60;14.13;;;11.70;98.30;;;;;;4067654;29;20474;-82
2021/10/12 18:22:13;;;;;;;14.20;12.60;;;11.70;98.30;;;;;;4067814;29;20966;-82
2021/10/12 18:24:16;;;;;;;14.70;12.20;;;11.70;98.30;;;;;;4067525;29;20577;-82
2021/10/12 18:26:20;;;;;;;12.50;10.30;;;11.60;98.30;;;;;;4067861;29;20911;-82
2021/10/12 18:28:23;;;;;;;10.87;9.40;;;11.60;98.30;;;;;;4062599;29;20492;-81
2021/10/12 18:30:28;;;;;;;13.03;9.77;;;11.60;98.30;;;;;;4065488;29;20506;-82
2021/10/12 18:32:31;;;;;;;12.40;10.00;;;11.50;98.30;;;;;;4070427;29;20471;-82
2021/10/12 18:34:33;;;;;;;11.93;9.80;;;11.50;98.30;;;;;;4070660;29;20482;-82
2021/10/12 18:36:56;;;;;;;13.23;9.90;;;11.50;98.30;;;;;;4063885;29;21019;-82
2021/10/12 18:39:00;;;;;;;14.07;9.93;;;11.50;98.30;;;;;;4070880;29;20474;-82
2021/10/12 18:41:03;;;;;;;9.37;8.40;;;11.50;98.30;;;;;;4070304;29;20869;-82
2021/10/12 18:43:06;;;;;;;9.70;8.33;;;11.40;98.30;;;;;;4070343;29;20486;-82
2021/10/12 18:45:09;;;;;;;14.77;9.73;;;11.40;98.30;;;;;;4070783;29;20481;-82
2021/10/12 18:47:15;;;;;;;10.13;8.23;;;11.50;98.30;;;;;;4070568;29;20483;-82
2021/10/12 18:49:18;;;;;;;9.77;8.07;;;11.40;98.30;;;;;;4070419;29;21014;-82
2021/10/12 18:51:22;;;;;;;10.97;7.37;;;11.40;98.30;;;;;;4069548;29;20482;-82
2021/10/12 18:53:25;;;;;;;10.67;7.37;;;11.40;98.30;;;;;;4070155;29;20486;-82
2021/10/12 18:55:29;;;;;;;10.30;7.80;;;11.40;98.30;;;;;;4070332;29;20512;-82
2021/10/12 18:57:32;;;;;;;9.53;7.60;;;11.40;98.30;;;;;;4070374;29;20486;-82
2021/10/12 18:59:35;;;;;;;7.47;6.77;;;11.40;98.30;;;;;;4070269;29;20570;-81
2021/10/12 19:01:38;;;;;;;10.30;8.33;;;11.30;98.30;;;;;;4070089;29;20495;-82
2021/10/12 19:03:43;;;;;;;14.27;10.57;;;11.30;98.30;;;;;;4070254;29;20503;-82
2021/10/12 19:05:46;;;;;;;28.37;18.90;;;11.40;98.30;;;;;;4054458;29;20540;-82
2021/10/12 19:07:49;;;;;;;27.20;20.03;;;11.40;98.30;;;;;;4070267;29;20846;-82
2021/10/12 19:09:52;;;;;;;12.87;10.63;;;11.50;98.30;;;;;;4071057;29;20866;-82
2021/10/12 19:11:56;;;;;;;16.60;11.53;;;11.40;98.30;;;;;;4068712;29;20479;-83
2021/10/12 19:14:00;;;;;;;18.33;12.93;;;11.30;98.30;;;;;;4063674;29;20542;-82
2021/10/12 19:16:04;;;;;;;14.30;11.30;;;11.20;98.30;;;;;;4069501;29;20560;-82
2021/10/12 19:18:07;;;;;;;14.63;12.30;;;11.20;98.30;;;;;;4069706;29;21011;-82
2021/10/12 19:20:12;;;;;;;15.13;12.73;;;11.10;98.30;;;;;;4069263;29;20475;-83
2021/10/12 19:22:18;;;;;;;18.10;13.27;;;11.10;98.30;;;;;;4061677;29;20483;-82
2021/10/12 19:24:21;;;;;;;16.53;13.07;;;11.00;98.30;;;;;;4069397;29;20495;-82
2021/10/12 19:26:24;;;;;;;15.60;12.93;;;11.00;98.30;;;;;;4069678;29;20478;-82
2021/10/12 19:28:27;;;;;;;15.10;12.67;;;11.00;98.30;;;;;;4069159;29;20515;-83
2021/10/12 19:30:30;;;;;;;14.87;12.70;;;10.90;98.30;;;;;;4069257;29;20570;-83
2021/10/12 19:32:33;;;;;;;17.93;14.07;;;10.90;98.30;;;;;;4069139;29;20468;-82
2021/10/12 19:34:36;;;;;;;20.60;14.10;;;10.90;98.30;;;;;;4069686;29;20558;-82
2021/10/12 19:36:40;;;;;;;17.47;14.33;;;10.80;98.30;;;;;;4069223;29;21053;-82
2021/10/12 19:38:43;;;;;;;18.00;13.23;;;10.80;98.30;;;;;;4069460;29;20516;-83
2021/10/12 19:40:46;;;;;;;15.87;12.53;;;10.80;98.30;;;;;;4069315;29;21151;-83
2021/10/12 19:42:49;;;;;;;15.07;11.53;;;10.80;98.30;;;;;;4068602;29;20475;-82
2021/10/12 19:44:53;;;;;;;15.00;12.37;;;10.80;98.30;;;;;;4068608;29;20475;-82
2021/10/12 19:46:56;;;;;;;14.83;12.43;;;10.80;98.30;;;;;;4068810;29;20485;-83
2021/10/12 19:48:59;;;;;;;14.80;12.03;;;10.80;98.30;;;;;;4069289;29;20482;-83
2021/10/12 19:51:02;;;;;;;17.17;12.63;;;10.80;98.30;;;;;;4068190;29;20513;-83
2021/10/12 19:53:08;;;;;;;17.53;13.87;;;10.80;98.30;;;;;;4071549;29;20504;-83
2021/10/12 19:55:11;;;;;;;15.50;11.70;;;10.80;98.30;;;;;;4070742;29;21042;-83
2021/10/12 19:57:14;;;;;;;13.23;10.97;;;10.80;98.30;;;;;;4069957;29;20475;-82
2021/10/12 19:59:18;;;;;;;12.13;10.83;;;10.80;98.30;;;;;;4071676;29;21251;-81
2021/10/12 20:01:21;;;;;;;11.90;9.80;;;10.70;98.30;;;;;;4063665;29;20987;-82
2021/10/12 20:05:45;;;;;;;11.57;9.93;;;10.70;98.30;;;;;;4064790;29;20476;-82
2021/10/12 20:07:49;;;;;;;14.67;10.53;;;10.60;98.30;;;;;;4066061;29;20566;-81
2021/10/12 20:09:53;;;;;;;9.37;8.40;;;10.50;98.30;;;;;;4067869;29;20504;-81
2021/10/12 20:11:56;;;;;;;10.70;9.40;;;10.50;98.30;;;;;;4068180;29;20470;-82
2021/10/12 20:14:01;;;;;;;11.23;9.23;;;10.50;98.30;;;;;;4065377;29;20494;-82
2021/10/12 20:16:05;;;;;;;9.87;8.83;;;10.50;98.30;;;;;;4068942;29;20458;-81
2021/10/12 20:20:29;;;;;;;11.27;9.03;;;10.50;98.30;;;;;;4060669;29;20456;-82
2021/10/12 20:22:32;;;;;;;11.60;9.63;;;10.40;98.30;;;;;;4068034;29;20569;-82
2021/10/12 20:24:36;;;;;;;9.90;8.07;;;10.40;98.30;;;;;;4059701;29;21082;-82